createdAt,value
2023-04-11T00:00:25.850Z,11.63
2023-04-11T00:03:13.704Z,11.93
2023-04-11T00:05:42.255Z,11.56
2023-04-11T00:08:10.460Z,11.59
2023-04-11T00:10:38.915Z,11.59
2023-04-11T00:13:07.513Z,11.54
2023-04-11T00:15:36.326Z,11.56
2023-04-11T00:18:04.462Z,11.38
2023-04-11T00:20:34.415Z,11.76
2023-04-11T00:23:02.667Z,11.32
2023-04-11T00:25:31.641Z,11.16
2023-04-11T00:27:59.828Z,11.18
2023-04-11T00:30:28.210Z,11.20
2023-04-11T00:32:56.573Z,11.18
2023-04-11T00:35:25.228Z,11.08
2023-04-11T00:37:56.370Z,11.24
2023-04-11T00:40:25.096Z,10.73
2023-04-11T00:42:53.291Z,10.58
2023-04-11T00:45:21.834Z,10.57
2023-04-11T00:47:50.821Z,10.81
2023-04-11T00:50:22.116Z,10.65
2023-04-11T00:52:51.517Z,10.71
2023-04-11T00:55:21.736Z,10.73
2023-04-11T00:57:49.957Z,10.10
2023-04-11T01:00:18.607Z,10.25
2023-04-11T01:02:46.952Z,10.21
2023-04-11T01:05:16.582Z,10.19
2023-04-11T01:07:47.026Z,10.33
2023-04-11T01:10:16.463Z,10.19
2023-04-11T01:12:46.906Z,10.38
2023-04-11T01:15:15.363Z,9.65
2023-04-11T01:17:43.616Z,9.50
2023-04-11T01:20:13.523Z,9.95
2023-04-11T01:22:42.897Z,9.93
2023-04-11T01:25:13.744Z,10.08
2023-04-11T01:27:42.359Z,9.63
2023-04-11T01:30:12.532Z,9.76
2023-04-11T01:32:40.774Z,9.42
2023-04-11T01:35:10.535Z,9.79
2023-04-11T01:37:38.689Z,9.59
2023-04-11T01:40:08.865Z,9.95
2023-04-11T01:42:38.981Z,10.19
2023-04-11T01:45:08.392Z,10.16
2023-04-11T01:47:37.553Z,10.37
2023-04-11T01:50:07.401Z,10.40
2023-04-11T01:52:35.504Z,10.23
2023-04-11T01:55:04.044Z,10.16
2023-04-11T01:57:33.090Z,9.82
2023-04-11T02:00:05.988Z,10.24
2023-04-11T02:02:34.153Z,9.60
2023-04-11T02:05:03.525Z,9.76
2023-04-11T02:07:31.749Z,9.86
2023-04-11T02:10:00.305Z,9.94
2023-04-11T02:12:28.501Z,10.01
2023-04-11T02:14:57.014Z,10.10
2023-04-11T02:17:30.990Z,10.52
2023-04-11T02:19:59.576Z,10.00
2023-04-11T02:22:27.867Z,9.92
2023-04-11T02:24:56.292Z,9.96
2023-04-11T02:27:24.568Z,10.05
2023-04-11T02:29:52.984Z,10.21
2023-04-11T02:32:21.302Z,10.32
2023-04-11T02:34:51.593Z,10.75
2023-04-11T02:37:19.775Z,10.23
2023-04-11T02:39:48.224Z,10.28
2023-04-11T02:42:16.412Z,10.35
2023-04-11T02:44:44.928Z,10.39
2023-04-11T02:47:13.070Z,10.44
2023-04-11T02:49:42.472Z,10.36
2023-04-11T02:52:12.058Z,10.69
2023-04-11T02:54:40.611Z,10.21
2023-04-11T02:57:08.758Z,10.07
2023-04-11T02:59:37.205Z,10.10
2023-04-11T03:02:05.617Z,9.89
2023-04-11T03:04:34.103Z,9.63
2023-04-11T03:07:02.302Z,9.57
2023-04-11T03:09:32.394Z,9.54
2023-04-11T03:12:01.351Z,9.11
2023-04-11T03:14:29.770Z,8.92
2023-04-11T03:16:57.943Z,9.05
2023-04-11T03:19:26.550Z,8.96
2023-04-11T03:21:54.657Z,8.93
2023-04-11T03:24:23.426Z,8.69
2023-04-11T03:26:52.934Z,9.06
2023-04-11T03:29:21.299Z,8.65
2023-04-11T03:31:49.437Z,8.56
2023-04-11T03:34:18.126Z,8.49
2023-04-11T03:36:46.212Z,8.50
2023-04-11T03:39:14.619Z,8.68
2023-04-11T03:41:42.724Z,8.54
2023-04-11T03:44:12.725Z,8.92
2023-04-11T03:46:40.906Z,8.63
2023-04-11T03:49:09.742Z,8.78
2023-04-11T03:51:37.797Z,8.98
2023-04-11T03:54:06.286Z,9.14
2023-04-11T03:56:34.564Z,9.16
2023-04-11T03:59:02.949Z,9.23
2023-04-11T04:01:32.604Z,9.73
2023-04-11T04:04:02.028Z,9.52
2023-04-11T04:06:30.595Z,9.61
2023-04-11T04:08:59.706Z,9.43
2023-04-11T04:11:27.958Z,9.40
2023-04-11T04:13:56.553Z,9.37
2023-04-11T04:16:24.971Z,9.31
2023-04-11T04:18:54.704Z,9.44
2023-04-11T04:21:26.894Z,8.79
2023-04-11T04:23:55.597Z,8.51
2023-04-11T04:26:25.258Z,8.65
2023-04-11T04:28:54.179Z,8.74
2023-04-11T04:31:25.786Z,8.55
2023-04-11T04:33:58.748Z,8.82
2023-04-11T04:36:26.892Z,8.52
2023-04-11T04:38:57.631Z,8.63
2023-04-11T04:41:25.786Z,8.33
2023-04-11T04:43:58.588Z,8.71
2023-04-11T04:46:26.961Z,8.69
2023-04-11T04:48:56.732Z,9.05
2023-04-11T04:51:24.890Z,8.81
2023-04-11T04:53:53.395Z,8.94
2023-04-11T04:56:21.519Z,8.97
2023-04-11T04:58:50.100Z,9.11
2023-04-11T05:01:18.338Z,8.93
2023-04-11T05:03:50.919Z,8.73
2023-04-11T05:06:20.585Z,9.34
2023-04-11T05:08:50.352Z,8.92
2023-04-11T05:11:18.585Z,9.22
2023-04-11T05:13:47.056Z,9.93
2023-04-11T05:16:15.204Z,10.05
2023-04-11T05:18:43.581Z,9.47
2023-04-11T05:21:12.020Z,9.16
2023-04-11T05:23:42.620Z,9.26
2023-04-11T05:26:11.396Z,9.26
2023-04-11T05:28:39.882Z,9.19
2023-04-11T05:31:08.728Z,9.25
2023-04-11T05:33:38.543Z,9.05
2023-04-11T05:36:07.801Z,9.74
2023-04-11T05:38:36.499Z,10.48
2023-04-11T05:41:06.563Z,11.18
2023-04-11T05:43:34.977Z,11.15
2023-04-11T05:46:03.534Z,11.76
2023-04-11T05:48:32.333Z,12.30
2023-04-11T05:51:01.608Z,13.21
2023-04-11T05:53:30.553Z,13.79
2023-04-11T05:55:59.134Z,15.41
2023-04-11T05:58:29.845Z,16.73
2023-04-11T06:00:59.547Z,17.14
2023-04-11T06:03:28.382Z,17.44
2023-04-11T06:05:56.787Z,17.25
2023-04-11T06:08:25.663Z,17.15
2023-04-11T06:10:53.842Z,17.43
2023-04-11T06:13:22.522Z,17.59
2023-04-11T06:15:52.051Z,18.05
2023-04-11T06:18:20.989Z,17.61
2023-04-11T06:20:49.634Z,17.21
2023-04-11T06:23:18.104Z,16.75
2023-04-11T06:25:46.369Z,16.32
2023-04-11T06:28:15.815Z,16.61
2023-04-11T06:30:44.012Z,16.48
2023-04-11T06:33:13.973Z,17.33
2023-04-11T06:35:42.231Z,17.46
2023-04-11T06:38:10.738Z,17.25
2023-04-11T06:40:38.962Z,16.83
2023-04-11T06:43:07.365Z,16.42
2023-04-11T06:45:35.774Z,16.20
2023-04-11T06:48:04.276Z,16.46
2023-04-11T06:50:33.887Z,16.90
2023-04-11T06:53:02.452Z,16.32
2023-04-11T06:55:31.018Z,16.71
2023-04-11T06:57:59.480Z,17.82
2023-04-11T07:00:28.179Z,19.10
2023-04-11T07:02:57.018Z,19.45
2023-04-11T07:05:26.272Z,19.02
2023-04-11T07:07:56.308Z,19.29
2023-04-11T07:10:25.359Z,18.76
2023-04-11T07:12:53.813Z,18.27
2023-04-11T07:15:23.883Z,18.05
2023-04-11T07:17:53.147Z,17.79
2023-04-11T07:20:21.854Z,17.58
2023-04-11T07:22:50.653Z,17.66
2023-04-11T07:25:22.771Z,18.53
2023-04-11T07:27:53.234Z,18.83
2023-04-11T07:30:21.529Z,19.32
2023-04-11T07:32:50.078Z,19.72
2023-04-11T07:35:18.448Z,20.32
2023-04-11T07:37:47.488Z,20.97
2023-04-11T07:40:15.737Z,21.25
2023-04-11T07:42:46.291Z,21.46
2023-04-11T07:45:14.577Z,20.15
2023-04-11T07:47:43.727Z,19.49
2023-04-11T07:50:12.594Z,19.13
2023-04-11T07:52:41.203Z,18.70
2023-04-11T07:55:10.065Z,18.73
2023-04-11T07:57:38.537Z,18.30
2023-04-11T08:00:11.709Z,19.02
2023-04-11T08:02:40.794Z,18.44
2023-04-11T08:05:10.636Z,18.31
2023-04-11T08:07:39.170Z,18.11
2023-04-11T08:10:08.709Z,17.74
2023-04-11T08:12:37.324Z,17.55
2023-04-11T08:15:06.271Z,18.03
2023-04-11T08:17:38.986Z,18.17
2023-04-11T08:20:09.450Z,18.24
2023-04-11T08:22:39.086Z,18.19
2023-04-11T08:25:09.648Z,18.43
2023-04-11T08:27:38.594Z,18.33
2023-04-11T08:30:08.482Z,18.76
2023-04-11T08:32:38.576Z,19.24
2023-04-11T08:35:07.526Z,19.71
2023-04-11T08:37:35.953Z,20.34
2023-04-11T08:40:07.210Z,20.85
2023-04-11T08:42:35.870Z,23.33
2023-04-11T08:45:08.683Z,24.14
2023-04-11T08:47:38.841Z,25.53
2023-04-11T08:50:08.472Z,26.31
2023-04-11T08:52:39.848Z,27.38
2023-04-11T08:55:08.602Z,28.24
2023-04-11T08:57:38.357Z,28.84
2023-04-11T09:00:14.951Z,29.90
2023-04-11T09:02:59.049Z,29.96
2023-04-11T09:05:28.954Z,27.86
2023-04-11T09:07:59.084Z,27.13
2023-04-11T09:10:27.856Z,27.40
2023-04-11T09:12:56.966Z,27.22
2023-04-11T09:15:26.573Z,27.06
2023-04-11T09:17:56.997Z,26.60
2023-04-11T09:20:30.421Z,27.07
2023-04-11T09:23:00.061Z,27.41
2023-04-11T09:25:28.774Z,27.04
2023-04-11T09:28:11.349Z,27.38
2023-04-11T09:30:39.688Z,26.62
2023-04-11T09:33:25.301Z,27.93
2023-04-11T09:35:56.014Z,27.58
2023-04-11T09:38:31.996Z,28.85
2023-04-11T09:41:01.084Z,29.08
2023-04-11T09:43:30.193Z,30.43
2023-04-11T09:46:11.126Z,31.42
2023-04-11T09:51:15.978Z,32.91
2023-04-11T09:53:53.543Z,33.63
2023-04-11T09:56:22.197Z,32.87
2023-04-11T09:58:51.595Z,32.37
2023-04-11T10:01:20.667Z,32.32
2023-04-11T10:03:51.219Z,32.39
2023-04-11T10:06:33.734Z,33.40
2023-04-11T10:09:09.749Z,33.20
2023-04-11T10:11:38.421Z,32.36
2023-04-11T10:14:06.926Z,32.12
2023-04-11T10:16:35.200Z,32.68
2023-04-11T10:19:27.625Z,34.46
2023-04-11T10:21:57.716Z,34.40
2023-04-11T10:24:26.852Z,34.23
2023-04-11T10:26:56.326Z,34.16
2023-04-11T10:29:53.281Z,34.15
2023-04-11T10:32:26.095Z,32.63
2023-04-11T10:35:23.824Z,32.27
2023-04-11T10:37:53.534Z,30.74
2023-04-11T10:40:22.978Z,30.06
2023-04-11T10:42:51.707Z,30.42
2023-04-11T10:45:22.224Z,32.02
2023-04-11T10:48:05.648Z,33.05
2023-04-11T10:50:40.972Z,33.11
2023-04-11T10:53:14.383Z,34.23
2023-04-11T10:55:48.068Z,34.57
2023-04-11T10:58:19.804Z,34.81
2023-04-11T11:01:26.188Z,35.73
2023-04-11T11:04:04.344Z,34.93
2023-04-11T11:06:46.089Z,35.21
2023-04-11T11:09:24.598Z,34.39
2023-04-11T11:12:09.576Z,33.90
2023-04-11T11:14:38.061Z,32.51
2023-04-11T11:17:06.684Z,32.27
2023-04-11T11:19:35.696Z,32.70
2023-04-11T11:22:06.262Z,32.84
2023-04-11T11:24:35.830Z,32.68
2023-04-11T11:27:04.429Z,32.05
2023-04-11T11:29:34.750Z,32.77
2023-04-11T11:32:04.379Z,32.74
2023-04-11T11:34:34.153Z,32.18
2023-04-11T11:37:04.751Z,31.42
2023-04-11T11:39:33.975Z,30.40
2023-04-11T11:42:03.918Z,29.63
2023-04-11T11:44:32.721Z,28.40
2023-04-11T11:47:05.081Z,27.97
2023-04-11T11:49:47.165Z,28.00
2023-04-11T11:52:34.163Z,27.43
2023-04-11T11:55:03.729Z,26.43
2023-04-11T11:57:34.703Z,26.24
2023-04-11T12:00:06.798Z,25.72
2023-04-11T12:02:36.796Z,25.61
2023-04-11T12:05:07.926Z,26.10
2023-04-11T12:07:39.151Z,25.81
2023-04-11T12:10:09.475Z,25.54
2023-04-11T12:12:41.516Z,25.56
2023-04-11T12:15:11.790Z,25.26
2023-04-11T12:17:40.872Z,24.88
2023-04-11T12:20:10.758Z,25.04
2023-04-11T12:22:39.554Z,24.98
2023-04-11T12:25:09.076Z,25.44
2023-04-11T12:27:39.635Z,25.47
2023-04-11T12:30:08.985Z,25.64
2023-04-11T12:32:39.070Z,25.47
2023-04-11T12:35:08.061Z,25.26
2023-04-11T12:37:36.686Z,25.08
2023-04-11T12:40:11.398Z,25.15
2023-04-11T12:42:55.231Z,25.08
2023-04-11T12:45:25.201Z,24.46
2023-04-11T12:47:53.957Z,24.15
2023-04-11T12:50:24.310Z,24.04
2023-04-11T12:52:54.035Z,24.24
2023-04-11T12:55:23.685Z,24.28
2023-04-11T12:57:54.007Z,24.62
2023-04-11T13:00:22.717Z,24.40
2023-04-11T13:02:51.495Z,24.51
2023-04-11T13:05:20.723Z,24.76
2023-04-11T13:07:49.827Z,24.82
2023-04-11T13:10:18.143Z,24.47
2023-04-11T13:12:48.589Z,24.53
2023-04-11T13:15:18.440Z,24.93
2023-04-11T13:17:47.313Z,24.56
2023-04-11T13:20:15.913Z,24.17
2023-04-11T13:22:44.802Z,23.81
2023-04-11T13:25:13.323Z,23.50
2023-04-11T13:27:42.660Z,23.55
2023-04-11T13:30:12.064Z,23.52
2023-04-11T13:32:42.197Z,23.51
2023-04-11T13:35:10.670Z,23.09
2023-04-11T13:37:39.269Z,22.69
2023-04-11T13:40:11.426Z,22.75
2023-04-11T13:42:40.296Z,22.49
2023-04-11T13:45:10.201Z,22.78
2023-04-11T13:47:39.196Z,22.69
2023-04-11T13:50:10.502Z,23.07
2023-04-11T13:52:39.046Z,22.37
2023-04-11T13:55:07.852Z,22.36
2023-04-11T13:57:36.386Z,22.23
2023-04-11T14:00:11.278Z,22.23
2023-04-11T14:02:40.787Z,22.35
2023-04-11T14:05:11.889Z,22.47
2023-04-11T14:07:40.636Z,21.98
2023-04-11T14:10:09.583Z,22.15
2023-04-11T14:12:38.402Z,22.16
2023-04-11T14:15:08.056Z,22.45
2023-04-11T14:17:36.647Z,22.07
2023-04-11T14:20:07.131Z,22.07
2023-04-11T14:22:37.074Z,22.16
2023-04-11T14:25:06.074Z,21.76
2023-04-11T14:27:34.797Z,21.71
2023-04-11T14:30:03.313Z,21.42
2023-04-11T14:32:31.908Z,21.44
2023-04-11T14:35:01.980Z,21.31
2023-04-11T14:37:32.004Z,21.08
2023-04-11T14:40:01.753Z,21.20
2023-04-11T14:42:30.379Z,20.66
2023-04-11T14:44:58.657Z,20.55
2023-04-11T14:47:27.471Z,20.11
2023-04-11T14:49:57.786Z,20.45
2023-04-11T14:52:26.490Z,19.74
2023-04-11T14:54:54.979Z,19.63
2023-04-11T14:57:25.007Z,19.80
2023-04-11T14:59:53.221Z,19.19
2023-04-11T15:02:22.174Z,19.07
2023-04-11T15:04:50.773Z,18.91
2023-04-11T15:07:19.324Z,18.69
2023-04-11T15:09:47.559Z,18.37
2023-04-11T15:12:16.099Z,18.41
2023-04-11T15:14:45.621Z,18.92
2023-04-11T15:17:14.195Z,18.60
2023-04-11T15:19:42.507Z,18.54
2023-04-11T15:22:11.070Z,18.48
2023-04-11T15:24:39.204Z,18.16
2023-04-11T15:27:07.794Z,18.37
2023-04-11T15:29:36.864Z,18.26
2023-04-11T15:32:07.136Z,18.42
2023-04-11T15:34:35.494Z,17.97
2023-04-11T15:37:04.024Z,17.90
2023-04-11T15:39:32.275Z,17.58
2023-04-11T15:42:01.709Z,17.65
2023-04-11T15:44:30.334Z,17.49
2023-04-11T15:46:59.170Z,17.43
2023-04-11T15:49:28.984Z,17.69
2023-04-11T15:51:57.709Z,17.25
2023-04-11T15:54:26.039Z,17.19
2023-04-11T15:56:54.947Z,17.23
2023-04-11T15:59:25.176Z,17.16
2023-04-11T16:01:53.841Z,17.15
2023-04-11T16:04:22.348Z,16.96
2023-04-11T16:06:52.686Z,17.25
2023-04-11T16:09:20.920Z,16.74
2023-04-11T16:11:49.609Z,16.70
2023-04-11T16:14:17.914Z,16.69
2023-04-11T16:16:47.379Z,16.74
2023-04-11T16:19:15.891Z,16.55
2023-04-11T16:21:44.621Z,16.57
2023-04-11T16:24:14.495Z,16.88
2023-04-11T16:26:43.196Z,16.50
2023-04-11T16:29:11.467Z,16.46
2023-04-11T16:31:40.239Z,16.31
2023-04-11T16:34:08.519Z,16.12
2023-04-11T16:36:36.997Z,15.86
2023-04-11T16:39:05.373Z,15.64
2023-04-11T16:41:37.311Z,16.00
2023-04-11T16:44:11.469Z,15.78
2023-04-11T16:46:40.498Z,15.83
2023-04-11T16:49:08.948Z,15.70
2023-04-11T16:51:38.197Z,15.77
2023-04-11T16:54:09.893Z,15.72
2023-04-11T16:56:39.978Z,15.66
2023-04-11T16:59:09.468Z,14.97
2023-04-11T17:01:38.188Z,14.74
2023-04-11T17:04:07.025Z,14.73
2023-04-11T17:06:37.156Z,14.49
2023-04-11T17:09:06.493Z,14.46
2023-04-11T17:11:37.329Z,14.45
2023-04-11T17:14:07.957Z,14.35
2023-04-11T17:16:36.801Z,13.66
2023-04-11T17:19:05.218Z,13.52
2023-04-11T17:21:33.800Z,13.60
2023-04-11T17:24:02.312Z,13.61
2023-04-11T17:26:30.953Z,13.80
2023-04-11T17:28:59.463Z,13.88
2023-04-11T17:31:29.579Z,13.91
2023-04-11T17:33:58.176Z,13.56
2023-04-11T17:36:28.582Z,13.46
2023-04-11T17:38:57.003Z,13.19
2023-04-11T17:41:25.765Z,12.79
2023-04-11T17:43:57.560Z,13.23
2023-04-11T17:46:26.297Z,12.65
2023-04-11T17:48:56.030Z,12.99
2023-04-11T17:51:24.588Z,12.61
2023-04-11T17:57:12.093Z,13.61
2023-04-11T17:59:45.930Z,12.80
2023-04-11T18:02:22.272Z,13.31
2023-04-11T18:04:54.176Z,13.09
2023-04-11T18:07:28.745Z,13.83
2023-04-11T18:09:59.501Z,12.82
2023-04-11T18:12:32.873Z,12.96
2023-04-11T18:15:01.696Z,12.86
2023-04-11T18:17:34.747Z,12.93
2023-04-11T18:20:08.798Z,13.39
2023-04-11T18:22:37.221Z,13.03
2023-04-11T18:25:07.491Z,13.24
2023-04-11T18:27:38.916Z,13.58
2023-04-11T18:30:15.343Z,13.68
2023-04-11T18:32:51.739Z,13.57
2023-04-11T18:35:27.719Z,13.37
2023-04-11T18:38:00.316Z,13.52
2023-04-11T18:40:36.098Z,13.14
2023-04-11T18:43:04.805Z,13.17
2023-04-11T18:45:37.056Z,13.12
2023-04-11T18:48:06.147Z,13.29
2023-04-11T18:50:39.068Z,13.62
2023-04-11T18:53:09.902Z,13.28
2023-04-11T18:55:41.776Z,13.32
2023-04-11T18:58:12.817Z,13.35
2023-04-11T19:00:43.994Z,13.32
2023-04-11T19:03:16.266Z,13.34
2023-04-11T19:05:47.159Z,13.79
2023-04-11T19:08:15.879Z,13.41
2023-04-11T19:10:44.907Z,13.42
2023-04-11T19:13:13.507Z,13.50
2023-04-11T19:15:42.664Z,13.55
2023-04-11T19:18:11.617Z,13.54
2023-04-11T19:20:40.764Z,13.63
2023-04-11T19:23:10.704Z,13.87
2023-04-11T19:25:39.905Z,13.46
2023-04-11T19:28:08.510Z,13.23
2023-04-11T19:30:37.188Z,13.26
2023-04-11T19:33:05.766Z,13.27
2023-04-11T19:35:34.623Z,13.38
2023-04-11T19:38:05.805Z,13.30
2023-04-11T19:40:36.058Z,13.65
2023-04-11T19:43:04.703Z,13.30
2023-04-11T19:45:34.656Z,13.38
2023-04-11T19:48:03.187Z,13.27
2023-04-11T19:50:32.193Z,13.30
2023-04-11T19:53:01.608Z,13.32
2023-04-11T19:55:30.274Z,13.39
2023-04-11T19:58:00.113Z,13.73
2023-04-11T20:00:32.055Z,13.48
2023-04-11T20:03:00.517Z,13.45
2023-04-11T20:05:32.181Z,13.54
2023-04-11T20:08:00.499Z,14.69
2023-04-11T20:10:29.375Z,13.61
2023-04-11T20:12:59.291Z,13.56
2023-04-11T20:15:27.971Z,13.53
2023-04-11T20:17:56.600Z,13.45
2023-04-11T20:20:28.082Z,13.84
2023-04-11T20:22:56.435Z,13.39
2023-04-11T20:25:25.208Z,13.24
2023-04-11T20:27:53.414Z,12.75
2023-04-11T20:30:23.384Z,13.20
2023-04-11T20:32:51.620Z,12.79
2023-04-11T20:35:20.491Z,12.92
2023-04-11T20:37:49.915Z,12.90
2023-04-11T20:40:18.940Z,12.90
2023-04-11T20:42:47.590Z,12.83
2023-04-11T20:45:17.344Z,13.01
2023-04-11T20:47:47.820Z,13.11
2023-04-11T20:50:17.803Z,12.83
2023-04-11T20:52:48.234Z,13.13
2023-04-11T20:55:16.723Z,12.67
2023-04-11T20:57:45.885Z,12.74
2023-04-11T21:00:18.599Z,12.78
2023-04-11T21:02:50.579Z,13.01
2023-04-11T21:05:20.717Z,12.89
2023-04-11T21:07:48.951Z,12.46
2023-04-11T21:10:19.323Z,12.46
2023-04-11T21:12:51.765Z,12.56
2023-04-11T21:15:21.176Z,12.60
2023-04-11T21:17:52.377Z,12.74
2023-04-11T21:20:22.373Z,12.32
2023-04-11T21:22:52.936Z,12.52
2023-04-11T21:25:21.940Z,12.37
2023-04-11T21:27:50.368Z,12.22
2023-04-11T21:30:18.876Z,12.18
2023-04-11T21:32:47.221Z,12.18
2023-04-11T21:35:17.151Z,12.60
2023-04-11T21:37:47.712Z,12.19
2023-04-11T21:40:17.648Z,12.13
2023-04-11T21:42:46.045Z,12.17
2023-04-11T21:45:14.731Z,12.07
2023-04-11T21:47:43.025Z,12.11
2023-04-11T21:50:12.656Z,12.22
2023-04-11T21:52:43.504Z,12.43
2023-04-11T21:55:12.645Z,12.18
2023-04-11T21:57:40.963Z,11.96
2023-04-11T22:00:11.916Z,12.29
2023-04-11T22:02:40.291Z,12.12
2023-04-11T22:05:10.056Z,12.20
2023-04-11T22:07:47.438Z,12.10
2023-04-11T22:10:24.011Z,12.57
2023-04-11T22:12:54.510Z,12.14
2023-04-11T22:15:24.312Z,12.22
2023-04-11T22:17:54.548Z,12.16
2023-04-11T22:20:23.240Z,12.21
2023-04-11T22:22:51.380Z,12.26
2023-04-11T22:25:22.715Z,12.65
2023-04-11T22:27:54.410Z,12.26
2023-04-11T22:30:24.428Z,12.24
2023-04-11T22:32:54.413Z,12.17
2023-04-11T22:35:24.867Z,12.22
2023-04-11T22:37:53.910Z,12.08
2023-04-11T22:40:23.962Z,12.25
2023-04-11T22:42:53.023Z,12.09
2023-04-11T22:45:22.712Z,12.17
2023-04-11T22:47:54.740Z,12.10
2023-04-11T22:50:23.758Z,12.04
2023-04-11T22:52:51.990Z,11.99
2023-04-11T22:55:21.244Z,11.99
2023-04-11T22:57:50.971Z,12.20
2023-04-11T23:00:22.014Z,12.07
2023-04-11T23:02:51.257Z,11.69
2023-04-11T23:05:20.887Z,11.81
2023-04-11T23:07:49.258Z,11.43
2023-04-11T23:10:18.941Z,11.52
2023-04-11T23:12:48.089Z,11.58
2023-04-11T23:15:18.641Z,12.01
2023-04-11T23:17:46.931Z,11.53
2023-04-11T23:20:15.853Z,11.53
2023-04-11T23:22:44.150Z,11.54
2023-04-11T23:25:14.192Z,11.77
2023-04-11T23:27:42.977Z,11.53
2023-04-11T23:30:12.638Z,11.59
2023-04-11T23:32:43.033Z,11.87
2023-04-11T23:35:11.922Z,11.49
2023-04-11T23:37:41.012Z,11.49
2023-04-11T23:40:14.092Z,11.82
2023-04-11T23:42:42.715Z,11.78
2023-04-11T23:45:12.775Z,11.81
2023-04-11T23:47:42.402Z,11.82
2023-04-11T23:50:12.272Z,11.71
2023-04-11T23:52:40.892Z,11.33
2023-04-11T23:55:10.198Z,11.59
2023-04-11T23:57:38.301Z,11.51
